createdAt,value
2022-10-19T00:02:45.149Z,5.40
2022-10-19T00:07:48.686Z,5.28
2022-10-19T00:12:52.323Z,4.90
2022-10-19T00:17:56.368Z,5.00
2022-10-19T00:23:00.310Z,5.15
2022-10-19T00:28:04.563Z,4.72
2022-10-19T00:33:08.181Z,5.00
2022-10-19T00:38:15.944Z,4.32
2022-10-19T00:43:26.381Z,5.72
2022-10-19T00:48:34.478Z,4.60
2022-10-19T00:53:38.274Z,4.97
2022-10-19T00:58:43.217Z,4.53
2022-10-19T01:03:50.358Z,4.85
2022-10-19T01:08:57.856Z,4.95
2022-10-19T01:14:14.006Z,4.88
2022-10-19T01:19:18.688Z,4.40
2022-10-19T01:25:05.900Z,5.05
2022-10-19T01:30:29.011Z,4.72
2022-10-19T01:35:40.794Z,6.28
2022-10-19T01:41:10.434Z,5.07
2022-10-19T01:46:25.854Z,4.88
2022-10-19T01:51:35.172Z,5.47
2022-10-19T01:56:43.212Z,5.85
2022-10-19T02:01:50.535Z,4.82
2022-10-19T02:06:56.776Z,5.45
2022-10-19T02:12:10.314Z,6.60
2022-10-19T02:17:18.627Z,6.20
2022-10-19T02:22:23.898Z,5.55
2022-10-19T02:27:29.256Z,6.10
2022-10-19T02:32:34.422Z,6.40
2022-10-19T02:37:39.479Z,6.60
2022-10-19T02:42:54.021Z,5.78
2022-10-19T02:48:07.127Z,6.15
2022-10-19T02:53:11.886Z,6.95
2022-10-19T02:58:16.695Z,5.70
2022-10-19T03:03:21.392Z,6.03
2022-10-19T03:08:26.179Z,5.88
2022-10-19T03:13:30.884Z,6.93
2022-10-19T03:18:35.735Z,6.25
2022-10-19T03:23:41.253Z,6.57
2022-10-19T03:28:46.019Z,7.15
2022-10-19T03:33:50.629Z,6.82
2022-10-19T03:38:57.793Z,8.07
2022-10-19T03:44:04.985Z,6.78
2022-10-19T03:49:17.153Z,7.00
2022-10-19T03:54:27.418Z,7.90
2022-10-19T03:59:34.848Z,6.70
2022-10-19T04:04:39.600Z,7.10
2022-10-19T04:09:44.355Z,6.43
2022-10-19T04:14:57.571Z,6.85
2022-10-19T04:20:02.401Z,6.32
2022-10-19T04:25:08.780Z,6.47
2022-10-19T04:30:16.751Z,6.57
2022-10-19T04:35:21.648Z,5.75
2022-10-19T04:40:27.495Z,5.18
2022-10-19T04:45:32.792Z,5.70
2022-10-19T04:50:40.758Z,6.03
2022-10-19T04:55:46.528Z,5.68
2022-10-19T05:00:51.335Z,6.00
2022-10-19T05:05:59.863Z,5.53
2022-10-19T05:11:13.509Z,6.65
2022-10-19T05:16:25.862Z,5.82
2022-10-19T05:21:31.098Z,5.25
2022-10-19T05:26:39.086Z,5.30
2022-10-19T05:31:43.934Z,5.88
2022-10-19T05:36:51.945Z,4.97
2022-10-19T05:41:56.699Z,4.82
2022-10-19T05:47:01.408Z,5.03
2022-10-19T05:52:09.341Z,6.45
2022-10-19T05:57:16.889Z,4.20
2022-10-19T06:02:21.706Z,4.07
2022-10-19T06:07:26.474Z,10.27
2022-10-19T06:12:41.339Z,5.72
2022-10-19T06:17:49.181Z,4.07
2022-10-19T06:22:56.436Z,4.63
2022-10-19T06:28:04.635Z,3.88
2022-10-19T06:33:15.114Z,3.10
2022-10-19T06:38:24.423Z,3.97
2022-10-19T06:43:32.167Z,4.88
2022-10-19T06:48:44.490Z,4.00
2022-10-19T06:53:56.514Z,3.60
2022-10-19T06:59:05.195Z,3.53
2022-10-19T07:04:15.113Z,2.90
2022-10-19T07:09:23.003Z,3.40
2022-10-19T07:14:30.263Z,2.75
2022-10-19T07:19:35.419Z,3.22
2022-10-19T07:24:40.047Z,3.65
2022-10-19T07:29:45.257Z,2.58
2022-10-19T07:34:50.220Z,3.10
2022-10-19T07:39:54.882Z,2.92
2022-10-19T07:45:00.170Z,3.85
2022-10-19T07:50:09.025Z,3.85
2022-10-19T07:55:17.382Z,3.50
2022-10-19T08:00:22.201Z,4.03
2022-10-19T08:05:27.589Z,4.32
2022-10-19T08:10:32.979Z,3.67
2022-10-19T08:15:41.202Z,4.35
2022-10-19T08:20:46.106Z,4.80
2022-10-19T08:25:54.316Z,3.90
2022-10-19T08:31:06.470Z,4.05
2022-10-19T08:36:13.238Z,3.90
2022-10-19T08:41:27.145Z,3.95
2022-10-19T08:46:59.066Z,3.70
2022-10-19T08:58:24.480Z,4.50
2022-10-19T09:03:54.905Z,3.65
2022-10-19T09:09:06.361Z,2.95
2022-10-19T09:14:24.064Z,3.17
2022-10-19T09:19:30.306Z,3.55
2022-10-19T09:24:46.806Z,4.05
2022-10-19T09:30:05.346Z,2.83
2022-10-19T09:35:33.798Z,3.20
2022-10-19T09:40:38.539Z,3.60
2022-10-19T09:46:20.048Z,3.72
2022-10-19T09:51:25.379Z,3.47
2022-10-19T09:56:30.095Z,3.20
2022-10-19T10:01:43.800Z,3.63
2022-10-19T10:06:50.235Z,2.63
2022-10-19T10:12:00.358Z,2.38
2022-10-19T10:17:10.821Z,2.00
2022-10-19T10:22:37.562Z,2.20
2022-10-19T10:27:59.282Z,2.00
2022-10-19T10:33:13.410Z,2.38
2022-10-19T10:38:31.068Z,2.30
2022-10-19T10:43:43.270Z,2.00
2022-10-19T10:49:00.047Z,2.15
2022-10-19T10:54:24.457Z,2.30
2022-10-19T10:59:39.309Z,2.72
2022-10-19T11:04:53.680Z,2.90
2022-10-19T11:10:15.808Z,2.90
2022-10-19T11:20:43.129Z,3.17
2022-10-19T11:26:15.039Z,2.40
2022-10-19T11:31:34.875Z,2.83
2022-10-19T11:37:08.496Z,2.38
2022-10-19T11:42:32.047Z,3.22
2022-10-19T11:47:45.256Z,2.63
2022-10-19T11:53:16.264Z,2.85
2022-10-19T11:58:50.517Z,2.80
2022-10-19T12:04:11.469Z,2.65
2022-10-19T12:09:36.595Z,3.00
2022-10-19T12:14:51.312Z,2.88
2022-10-19T12:20:00.915Z,3.38
2022-10-19T12:25:06.844Z,2.78
2022-10-19T12:30:22.775Z,2.90
2022-10-19T12:35:46.822Z,3.00
2022-10-19T12:41:01.836Z,3.25
2022-10-19T12:46:26.278Z,3.60
2022-10-19T12:51:29.861Z,2.60
2022-10-19T12:56:49.060Z,2.67
2022-10-19T13:01:54.581Z,2.58
2022-10-19T13:06:58.302Z,2.38
2022-10-19T13:12:16.457Z,2.55
2022-10-19T13:17:35.642Z,2.70
2022-10-19T13:22:39.528Z,3.80
2022-10-19T13:27:44.432Z,2.88
2022-10-19T13:32:47.948Z,2.40
2022-10-19T13:38:09.609Z,2.35
2022-10-19T13:43:25.832Z,2.42
2022-10-19T13:48:58.851Z,1.83
2022-10-19T13:54:29.822Z,2.58
2022-10-19T13:59:48.577Z,2.58
2022-10-19T14:05:20.240Z,2.47
2022-10-19T14:10:32.850Z,2.42
2022-10-19T14:15:36.844Z,2.60
2022-10-19T14:20:40.192Z,2.20
2022-10-19T14:25:55.405Z,2.88
2022-10-19T14:31:23.047Z,2.30
2022-10-19T14:36:32.306Z,2.15
2022-10-19T14:41:37.375Z,2.67
2022-10-19T14:46:47.434Z,2.50
2022-10-19T14:52:03.392Z,2.80
2022-10-19T14:57:13.745Z,2.78
2022-10-19T15:02:35.220Z,2.85
2022-10-19T15:07:41.004Z,2.87
2022-10-19T15:12:45.568Z,2.90
2022-10-19T15:17:54.824Z,3.28
2022-10-19T15:22:59.054Z,2.78
2022-10-19T15:28:41.864Z,3.00
2022-10-19T15:33:51.751Z,3.10
2022-10-19T15:39:06.241Z,2.97
2022-10-19T15:44:33.865Z,3.45
2022-10-19T15:49:43.049Z,2.90
2022-10-19T15:54:54.768Z,4.43
2022-10-19T16:00:01.411Z,5.30
2022-10-19T16:05:07.978Z,4.18
2022-10-19T16:10:17.380Z,4.00
2022-10-19T16:15:23.286Z,4.35
2022-10-19T16:20:29.444Z,3.78
2022-10-19T16:25:34.107Z,3.70
2022-10-19T16:30:37.716Z,4.00
2022-10-19T16:35:41.019Z,4.13
2022-10-19T16:40:45.121Z,4.13
2022-10-19T16:45:48.443Z,4.03
2022-10-19T16:51:11.998Z,4.70
2022-10-19T16:56:15.103Z,4.75
2022-10-19T17:01:19.483Z,4.30
2022-10-19T17:06:23.539Z,5.00
2022-10-19T17:11:35.516Z,5.20
2022-10-19T17:16:39.814Z,5.30
2022-10-19T17:21:43.175Z,4.50
2022-10-19T17:26:46.459Z,4.82
2022-10-19T17:31:50.590Z,4.22
2022-10-19T17:36:54.032Z,5.55
2022-10-19T17:41:59.292Z,5.30
2022-10-19T17:47:02.515Z,5.70
2022-10-19T17:52:05.904Z,5.80
2022-10-19T17:57:09.093Z,6.63
2022-10-19T18:02:12.574Z,6.13
2022-10-19T18:07:18.061Z,7.00
2022-10-19T18:12:25.226Z,7.07
2022-10-19T18:17:28.535Z,6.75
2022-10-19T18:22:33.016Z,6.65
2022-10-19T18:27:37.141Z,9.13
2022-10-19T18:32:43.254Z,6.22
2022-10-19T18:37:47.168Z,7.07
2022-10-19T18:42:51.624Z,7.10
2022-10-19T18:47:56.389Z,6.15
2022-10-19T18:53:00.718Z,5.80
2022-10-19T18:58:04.966Z,6.57
2022-10-19T19:03:09.526Z,6.50
2022-10-19T19:08:13.617Z,6.78
2022-10-19T19:13:17.237Z,6.25
2022-10-19T19:18:20.832Z,7.15
2022-10-19T19:23:24.823Z,6.85
2022-10-19T19:28:28.512Z,5.35
2022-10-19T19:33:32.769Z,6.53
2022-10-19T19:38:37.484Z,6.45
2022-10-19T19:43:42.607Z,6.65
2022-10-19T19:48:48.305Z,6.30
2022-10-19T19:53:52.279Z,6.43
2022-10-19T19:58:59.411Z,6.30
2022-10-19T20:09:13.617Z,6.90
2022-10-19T20:14:16.868Z,6.75
2022-10-19T20:19:20.669Z,6.60
2022-10-19T20:24:24.564Z,6.50
2022-10-19T20:29:28.853Z,6.63
2022-10-19T20:34:36.359Z,6.30
2022-10-19T20:39:40.441Z,6.63
2022-10-19T20:44:44.551Z,6.47
2022-10-19T20:49:48.527Z,7.10
2022-10-19T20:54:52.301Z,6.35
2022-10-19T20:59:58.190Z,6.35
2022-10-19T21:05:07.076Z,6.95
2022-10-19T21:10:10.489Z,6.93
2022-10-19T21:15:15.472Z,7.03
2022-10-19T21:20:18.754Z,6.75
2022-10-19T21:25:22.142Z,6.43
2022-10-19T21:30:25.626Z,7.78
2022-10-19T21:35:28.956Z,6.70
2022-10-19T21:40:35.655Z,6.90
2022-10-19T21:45:38.795Z,7.18
2022-10-19T21:50:42.062Z,6.82
2022-10-19T21:55:45.818Z,6.45
2022-10-19T22:00:51.824Z,7.13
2022-10-19T22:06:04.183Z,7.93
2022-10-19T22:11:09.733Z,7.10
2022-10-19T22:16:16.852Z,6.28
2022-10-19T22:21:26.592Z,7.20
2022-10-19T22:26:33.306Z,7.85
2022-10-19T22:31:37.343Z,6.63
2022-10-19T22:36:41.004Z,6.95
2022-10-19T22:41:44.669Z,6.45
2022-10-19T22:46:48.026Z,6.85
2022-10-19T22:51:51.428Z,6.05
2022-10-19T22:56:55.008Z,6.20
2022-10-19T23:01:58.378Z,6.80
2022-10-19T23:07:01.796Z,6.97
2022-10-19T23:12:05.590Z,6.03
2022-10-19T23:17:09.164Z,5.95
2022-10-19T23:22:12.848Z,6.13
2022-10-19T23:27:16.298Z,5.38
2022-10-19T23:32:19.678Z,5.65
2022-10-19T23:37:24.868Z,5.57
2022-10-19T23:42:28.555Z,5.28
2022-10-19T23:47:31.756Z,5.63
2022-10-19T23:52:35.290Z,5.30
2022-10-19T23:57:38.981Z,5.65
